sensor_id;sensor_type;location;lat;lon;timestamp;P1;durP1;ratioP1;P2;durP2;ratioP2
61572;SDS011;47465;43.094;12.434;2023-07-28T00:01:08;4.22;;;2.22;;
61572;SDS011;47465;43.094;12.434;2023-07-28T00:03:36;5.60;;;2.20;;
61572;SDS011;47465;43.094;12.434;2023-07-28T00:06:01;6.15;;;2.47;;
61572;SDS011;47465;43.094;12.434;2023-07-28T00:08:27;7.70;;;2.40;;
61572;SDS011;47465;43.094;12.434;2023-07-28T00:10:53;8.18;;;2.30;;
61572;SDS011;47465;43.094;12.434;2023-07-28T00:13:19;5.28;;;2.17;;
61572;SDS011;47465;43.094;12.434;2023-07-28T00:15:45;4.03;;;2.00;;
61572;SDS011;47465;43.094;12.434;2023-07-28T00:18:11;6.63;;;2.67;;
61572;SDS011;47465;43.094;12.434;2023-07-28T00:20:38;4.97;;;2.05;;
61572;SDS011;47465;43.094;12.434;2023-07-28T00:23:04;5.20;;;2.28;;
61572;SDS011;47465;43.094;12.434;2023-07-28T00:25:30;6.65;;;2.55;;
61572;SDS011;47465;43.094;12.434;2023-07-28T00:27:56;6.72;;;2.60;;
61572;SDS011;47465;43.094;12.434;2023-07-28T00:30:22;5.20;;;2.40;;
61572;SDS011;47465;43.094;12.434;2023-07-28T00:32:48;6.90;;;2.35;;
61572;SDS011;47465;43.094;12.434;2023-07-28T00:35:14;4.97;;;2.13;;
61572;SDS011;47465;43.094;12.434;2023-07-28T00:37:42;5.28;;;2.10;;
61572;SDS011;47465;43.094;12.434;2023-07-28T00:40:08;5.18;;;2.30;;
61572;SDS011;47465;43.094;12.434;2023-07-28T00:42:34;8.25;;;2.40;;
61572;SDS011;47465;43.094;12.434;2023-07-28T00:45:00;4.57;;;2.10;;
61572;SDS011;47465;43.094;12.434;2023-07-28T00:47:26;5.28;;;2.10;;
61572;SDS011;47465;43.094;12.434;2023-07-28T00:49:51;7.28;;;2.50;;
61572;SDS011;47465;43.094;12.434;2023-07-28T00:52:17;7.78;;;2.45;;
61572;SDS011;47465;43.094;12.434;2023-07-28T00:54:45;5.30;;;2.20;;
61572;SDS011;47465;43.094;12.434;2023-07-28T00:57:10;7.78;;;2.65;;
61572;SDS011;47465;43.094;12.434;2023-07-28T00:59:37;6.07;;;2.30;;
61572;SDS011;47465;43.094;12.434;2023-07-28T01:02:03;7.75;;;2.40;;
61572;SDS011;47465;43.094;12.434;2023-07-28T01:04:29;6.75;;;2.70;;
61572;SDS011;47465;43.094;12.434;2023-07-28T01:06:57;5.32;;;2.50;;
61572;SDS011;47465;43.094;12.434;2023-07-28T01:09:36;4.85;;;2.67;;
61572;SDS011;47465;43.094;12.434;2023-07-28T01:12:08;6.70;;;2.53;;
61572;SDS011;47465;43.094;12.434;2023-07-28T01:14:34;5.55;;;2.42;;
61572;SDS011;47465;43.094;12.434;2023-07-28T01:17:00;4.65;;;2.60;;
61572;SDS011;47465;43.094;12.434;2023-07-28T01:19:26;6.15;;;2.50;;
61572;SDS011;47465;43.094;12.434;2023-07-28T01:21:53;6.18;;;2.95;;
61572;SDS011;47465;43.094;12.434;2023-07-28T01:24:27;4.90;;;2.50;;
61572;SDS011;47465;43.094;12.434;2023-07-28T01:27:02;11.18;;;3.60;;
61572;SDS011;47465;43.094;12.434;2023-07-28T01:29:29;7.63;;;3.15;;
61572;SDS011;47465;43.094;12.434;2023-07-28T01:31:58;8.82;;;3.10;;
61572;SDS011;47465;43.094;12.434;2023-07-28T01:34:24;6.50;;;2.90;;
61572;SDS011;47465;43.094;12.434;2023-07-28T01:36:50;6.53;;;2.80;;
61572;SDS011;47465;43.094;12.434;2023-07-28T01:39:16;8.63;;;2.90;;
61572;SDS011;47465;43.094;12.434;2023-07-28T01:41:42;10.05;;;3.00;;
61572;SDS011;47465;43.094;12.434;2023-07-28T01:44:11;7.22;;;2.83;;
61572;SDS011;47465;43.094;12.434;2023-07-28T01:46:36;7.50;;;3.00;;
61572;SDS011;47465;43.094;12.434;2023-07-28T01:49:04;6.38;;;2.78;;
61572;SDS011;47465;43.094;12.434;2023-07-28T01:51:30;9.35;;;3.58;;
61572;SDS011;47465;43.094;12.434;2023-07-28T01:53:56;5.80;;;2.92;;
61572;SDS011;47465;43.094;12.434;2023-07-28T01:56:22;6.65;;;2.72;;
61572;SDS011;47465;43.094;12.434;2023-07-28T01:58:47;6.75;;;3.25;;
61572;SDS011;47465;43.094;12.434;2023-07-28T02:01:15;6.63;;;2.83;;
61572;SDS011;47465;43.094;12.434;2023-07-28T02:03:41;9.07;;;3.38;;
61572;SDS011;47465;43.094;12.434;2023-07-28T02:06:07;7.32;;;2.97;;
61572;SDS011;47465;43.094;12.434;2023-07-28T02:08:32;9.93;;;3.30;;
61572;SDS011;47465;43.094;12.434;2023-07-28T02:10:58;6.60;;;3.25;;
61572;SDS011;47465;43.094;12.434;2023-07-28T02:13:24;6.43;;;2.85;;
61572;SDS011;47465;43.094;12.434;2023-07-28T02:15:50;7.60;;;3.40;;
61572;SDS011;47465;43.094;12.434;2023-07-28T02:18:17;6.28;;;3.13;;
61572;SDS011;47465;43.094;12.434;2023-07-28T02:20:43;6.45;;;3.25;;
61572;SDS011;47465;43.094;12.434;2023-07-28T02:23:09;7.75;;;3.45;;
61572;SDS011;47465;43.094;12.434;2023-07-28T02:25:35;8.50;;;3.08;;
61572;SDS011;47465;43.094;12.434;2023-07-28T02:28:01;9.35;;;3.13;;
61572;SDS011;47465;43.094;12.434;2023-07-28T02:30:26;9.52;;;3.30;;
61572;SDS011;47465;43.094;12.434;2023-07-28T02:32:52;10.45;;;3.47;;
61572;SDS011;47465;43.094;12.434;2023-07-28T02:35:20;9.10;;;3.03;;
61572;SDS011;47465;43.094;12.434;2023-07-28T02:37:45;6.35;;;3.33;;
61572;SDS011;47465;43.094;12.434;2023-07-28T02:40:11;6.82;;;3.58;;
61572;SDS011;47465;43.094;12.434;2023-07-28T02:42:38;10.30;;;4.13;;
61572;SDS011;47465;43.094;12.434;2023-07-28T02:45:04;12.55;;;3.72;;
61572;SDS011;47465;43.094;12.434;2023-07-28T02:47:30;8.70;;;3.20;;
61572;SDS011;47465;43.094;12.434;2023-07-28T02:49:56;8.63;;;3.17;;
61572;SDS011;47465;43.094;12.434;2023-07-28T02:52:24;6.28;;;3.10;;
61572;SDS011;47465;43.094;12.434;2023-07-28T02:54:50;8.75;;;3.47;;
61572;SDS011;47465;43.094;12.434;2023-07-28T02:57:15;7.88;;;3.15;;
61572;SDS011;47465;43.094;12.434;2023-07-28T02:59:41;8.73;;;3.30;;
61572;SDS011;47465;43.094;12.434;2023-07-28T03:02:07;12.50;;;3.05;;
61572;SDS011;47465;43.094;12.434;2023-07-28T03:04:33;6.68;;;3.08;;
61572;SDS011;47465;43.094;12.434;2023-07-28T03:06:59;8.05;;;2.90;;
61572;SDS011;47465;43.094;12.434;2023-07-28T03:09:26;8.70;;;3.40;;
61572;SDS011;47465;43.094;12.434;2023-07-28T03:11:52;7.85;;;3.20;;
61572;SDS011;47465;43.094;12.434;2023-07-28T03:14:18;8.70;;;3.40;;
61572;SDS011;47465;43.094;12.434;2023-07-28T03:16:44;6.68;;;3.00;;
61572;SDS011;47465;43.094;12.434;2023-07-28T03:19:10;7.78;;;3.38;;
61572;SDS011;47465;43.094;12.434;2023-07-28T03:21:35;8.57;;;3.50;;
61572;SDS011;47465;43.094;12.434;2023-07-28T03:24:01;8.00;;;3.75;;
61572;SDS011;47465;43.094;12.434;2023-07-28T03:26:29;7.05;;;3.10;;
61572;SDS011;47465;43.094;12.434;2023-07-28T03:28:58;9.55;;;3.38;;
61572;SDS011;47465;43.094;12.434;2023-07-28T03:33:49;9.30;;;3.42;;
61572;SDS011;47465;43.094;12.434;2023-07-28T03:36:15;7.70;;;3.47;;
61572;SDS011;47465;43.094;12.434;2023-07-28T03:38:41;7.35;;;3.42;;
61572;SDS011;47465;43.094;12.434;2023-07-28T03:41:07;9.02;;;3.60;;
61572;SDS011;47465;43.094;12.434;2023-07-28T03:43:34;8.05;;;3.55;;
61572;SDS011;47465;43.094;12.434;2023-07-28T03:46:00;7.10;;;3.40;;
61572;SDS011;47465;43.094;12.434;2023-07-28T03:48:26;12.27;;;3.75;;
61572;SDS011;47465;43.094;12.434;2023-07-28T03:50:52;17.67;;;3.85;;
61572;SDS011;47465;43.094;12.434;2023-07-28T03:53:18;10.68;;;3.63;;
61572;SDS011;47465;43.094;12.434;2023-07-28T03:55:43;7.20;;;3.40;;
61572;SDS011;47465;43.094;12.434;2023-07-28T03:58:09;10.50;;;4.18;;
61572;SDS011;47465;43.094;12.434;2023-07-28T04:00:37;9.95;;;3.70;;
61572;SDS011;47465;43.094;12.434;2023-07-28T04:03:03;11.52;;;3.53;;
61572;SDS011;47465;43.094;12.434;2023-07-28T04:05:28;10.95;;;4.20;;
61572;SDS011;47465;43.094;12.434;2023-07-28T04:07:54;9.80;;;3.80;;
61572;SDS011;47465;43.094;12.434;2023-07-28T04:10:20;8.68;;;3.22;;
61572;SDS011;47465;43.094;12.434;2023-07-28T04:12:47;12.10;;;3.80;;
61572;SDS011;47465;43.094;12.434;2023-07-28T04:15:13;9.57;;;3.70;;
61572;SDS011;47465;43.094;12.434;2023-07-28T04:17:40;8.05;;;3.65;;
61572;SDS011;47465;43.094;12.434;2023-07-28T04:20:06;14.02;;;3.88;;
61572;SDS011;47465;43.094;12.434;2023-07-28T04:22:33;12.82;;;3.63;;
61572;SDS011;47465;43.094;12.434;2023-07-28T04:24:58;13.85;;;3.88;;
61572;SDS011;47465;43.094;12.434;2023-07-28T04:27:24;10.38;;;4.10;;
61572;SDS011;47465;43.094;12.434;2023-07-28T04:29:50;11.13;;;3.85;;
61572;SDS011;47465;43.094;12.434;2023-07-28T04:32:16;10.20;;;3.80;;
61572;SDS011;47465;43.094;12.434;2023-07-28T04:34:43;10.77;;;3.80;;
61572;SDS011;47465;43.094;12.434;2023-07-28T04:37:09;8.55;;;3.72;;
61572;SDS011;47465;43.094;12.434;2023-07-28T04:39:35;9.77;;;3.85;;
61572;SDS011;47465;43.094;12.434;2023-07-28T04:42:01;7.75;;;3.97;;
61572;SDS011;47465;43.094;12.434;2023-07-28T04:44:27;8.30;;;3.90;;
61572;SDS011;47465;43.094;12.434;2023-07-28T04:46:53;9.07;;;3.72;;
61572;SDS011;47465;43.094;12.434;2023-07-28T04:49:18;12.45;;;4.25;;
61572;SDS011;47465;43.094;12.434;2023-07-28T04:51:48;8.63;;;3.83;;
61572;SDS011;47465;43.094;12.434;2023-07-28T04:54:14;9.38;;;4.10;;
61572;SDS011;47465;43.094;12.434;2023-07-28T04:56:39;7.70;;;4.00;;
61572;SDS011;47465;43.094;12.434;2023-07-28T04:59:05;12.55;;;4.22;;
61572;SDS011;47465;43.094;12.434;2023-07-28T05:01:32;16.15;;;4.35;;
61572;SDS011;47465;43.094;12.434;2023-07-28T05:03:58;9.60;;;3.90;;
61572;SDS011;47465;43.094;12.434;2023-07-28T05:06:24;10.88;;;3.95;;
61572;SDS011;47465;43.094;12.434;2023-07-28T05:08:51;13.27;;;3.85;;
61572;SDS011;47465;43.094;12.434;2023-07-28T05:11:17;11.30;;;4.18;;
61572;SDS011;47465;43.094;12.434;2023-07-28T05:13:44;9.05;;;3.65;;
61572;SDS011;47465;43.094;12.434;2023-07-28T05:16:10;12.57;;;3.70;;
61572;SDS011;47465;43.094;12.434;2023-07-28T05:18:37;11.43;;;3.90;;
61572;SDS011;47465;43.094;12.434;2023-07-28T05:21:12;14.38;;;3.95;;
61572;SDS011;47465;43.094;12.434;2023-07-28T05:23:38;14.05;;;4.20;;
61572;SDS011;47465;43.094;12.434;2023-07-28T05:26:06;15.10;;;4.13;;
61572;SDS011;47465;43.094;12.434;2023-07-28T05:28:33;9.85;;;3.80;;
61572;SDS011;47465;43.094;12.434;2023-07-28T05:31:03;7.15;;;3.53;;
61572;SDS011;47465;43.094;12.434;2023-07-28T05:33:29;11.15;;;3.95;;
61572;SDS011;47465;43.094;12.434;2023-07-28T05:35:58;8.15;;;3.60;;
61572;SDS011;47465;43.094;12.434;2023-07-28T05:38:26;12.60;;;4.43;;
61572;SDS011;47465;43.094;12.434;2023-07-28T05:40:55;12.25;;;3.90;;
61572;SDS011;47465;43.094;12.434;2023-07-28T05:43:23;10.07;;;3.83;;
61572;SDS011;47465;43.094;12.434;2023-07-28T05:45:49;10.50;;;4.00;;
61572;SDS011;47465;43.094;12.434;2023-07-28T05:48:15;10.45;;;3.80;;
61572;SDS011;47465;43.094;12.434;2023-07-28T05:50:41;9.68;;;4.43;;
61572;SDS011;47465;43.094;12.434;2023-07-28T05:53:06;11.75;;;3.67;;
61572;SDS011;47465;43.094;12.434;2023-07-28T05:55:32;9.63;;;4.05;;
61572;SDS011;47465;43.094;12.434;2023-07-28T05:57:58;13.40;;;4.30;;
61572;SDS011;47465;43.094;12.434;2023-07-28T06:00:26;13.18;;;4.05;;
61572;SDS011;47465;43.094;12.434;2023-07-28T06:02:52;11.48;;;4.60;;
61572;SDS011;47465;43.094;12.434;2023-07-28T06:05:18;14.52;;;4.53;;
61572;SDS011;47465;43.094;12.434;2023-07-28T06:07:44;10.15;;;4.45;;
61572;SDS011;47465;43.094;12.434;2023-07-28T06:10:10;11.95;;;4.07;;
61572;SDS011;47465;43.094;12.434;2023-07-28T06:12:36;8.75;;;3.78;;
61572;SDS011;47465;43.094;12.434;2023-07-28T06:15:02;10.75;;;4.38;;
61572;SDS011;47465;43.094;12.434;2023-07-28T06:17:39;11.68;;;4.22;;
61572;SDS011;47465;43.094;12.434;2023-07-28T06:20:05;12.77;;;4.13;;
61572;SDS011;47465;43.094;12.434;2023-07-28T06:24:59;9.48;;;4.85;;
61572;SDS011;47465;43.094;12.434;2023-07-28T06:27:25;24.70;;;9.55;;
61572;SDS011;47465;43.094;12.434;2023-07-28T06:29:54;46.22;;;23.10;;
61572;SDS011;47465;43.094;12.434;2023-07-28T06:32:20;35.95;;;16.35;;
61572;SDS011;47465;43.094;12.434;2023-07-28T06:34:50;18.33;;;9.50;;
61572;SDS011;47465;43.094;12.434;2023-07-28T06:37:17;12.00;;;4.97;;
61572;SDS011;47465;43.094;12.434;2023-07-28T06:39:42;24.67;;;12.98;;
61572;SDS011;47465;43.094;12.434;2023-07-28T06:42:09;11.77;;;4.70;;
61572;SDS011;47465;43.094;12.434;2023-07-28T06:44:35;12.95;;;4.13;;
61572;SDS011;47465;43.094;12.434;2023-07-28T06:47:01;10.60;;;4.25;;
61572;SDS011;47465;43.094;12.434;2023-07-28T06:49:26;14.15;;;3.92;;
61572;SDS011;47465;43.094;12.434;2023-07-28T06:51:54;13.18;;;4.25;;
61572;SDS011;47465;43.094;12.434;2023-07-28T06:54:20;10.95;;;4.47;;
61572;SDS011;47465;43.094;12.434;2023-07-28T06:56:47;14.68;;;4.50;;
61572;SDS011;47465;43.094;12.434;2023-07-28T06:59:17;21.08;;;4.60;;
61572;SDS011;47465;43.094;12.434;2023-07-28T07:01:42;12.32;;;4.13;;
61572;SDS011;47465;43.094;12.434;2023-07-28T07:04:08;10.77;;;3.85;;
61572;SDS011;47465;43.094;12.434;2023-07-28T07:06:34;10.80;;;4.57;;
61572;SDS011;47465;43.094;12.434;2023-07-28T07:09:02;9.60;;;4.07;;
61572;SDS011;47465;43.094;12.434;2023-07-28T07:11:28;10.40;;;4.43;;
61572;SDS011;47465;43.094;12.434;2023-07-28T07:13:54;13.27;;;4.43;;
61572;SDS011;47465;43.094;12.434;2023-07-28T07:16:20;13.15;;;4.78;;
61572;SDS011;47465;43.094;12.434;2023-07-28T07:18:46;9.57;;;4.60;;
61572;SDS011;47465;43.094;12.434;2023-07-28T07:21:12;8.70;;;4.20;;
61572;SDS011;47465;43.094;12.434;2023-07-28T07:23:38;13.90;;;4.50;;
61572;SDS011;47465;43.094;12.434;2023-07-28T07:26:06;12.15;;;4.13;;
61572;SDS011;47465;43.094;12.434;2023-07-28T07:28:32;17.17;;;4.45;;
61572;SDS011;47465;43.094;12.434;2023-07-28T07:31:00;11.05;;;3.97;;
61572;SDS011;47465;43.094;12.434;2023-07-28T07:33:26;13.13;;;4.45;;
61572;SDS011;47465;43.094;12.434;2023-07-28T07:35:52;16.33;;;4.90;;
61572;SDS011;47465;43.094;12.434;2023-07-28T07:38:18;14.02;;;4.43;;
61572;SDS011;47465;43.094;12.434;2023-07-28T07:40:46;12.05;;;4.57;;
61572;SDS011;47465;43.094;12.434;2023-07-28T07:43:13;13.82;;;4.65;;
61572;SDS011;47465;43.094;12.434;2023-07-28T07:45:45;12.23;;;4.35;;
61572;SDS011;47465;43.094;12.434;2023-07-28T07:48:12;12.68;;;4.30;;
61572;SDS011;47465;43.094;12.434;2023-07-28T07:50:38;10.77;;;4.68;;
61572;SDS011;47465;43.094;12.434;2023-07-28T07:53:04;9.38;;;4.30;;
61572;SDS011;47465;43.094;12.434;2023-07-28T07:55:30;13.02;;;4.53;;
61572;SDS011;47465;43.094;12.434;2023-07-28T07:57:57;11.68;;;4.65;;
61572;SDS011;47465;43.094;12.434;2023-07-28T08:00:24;9.50;;;4.70;;
61572;SDS011;47465;43.094;12.434;2023-07-28T08:02:50;8.02;;;4.43;;
61572;SDS011;47465;43.094;12.434;2023-07-28T08:05:16;12.07;;;4.93;;
61572;SDS011;47465;43.094;12.434;2023-07-28T08:07:42;13.25;;;4.80;;
61572;SDS011;47465;43.094;12.434;2023-07-28T08:10:09;11.85;;;4.85;;
61572;SDS011;47465;43.094;12.434;2023-07-28T08:12:35;15.52;;;5.28;;
61572;SDS011;47465;43.094;12.434;2023-07-28T08:15:01;10.07;;;4.40;;
61572;SDS011;47465;43.094;12.434;2023-07-28T08:17:28;11.55;;;4.95;;
61572;SDS011;47465;43.094;12.434;2023-07-28T08:19:54;9.27;;;4.70;;
61572;SDS011;47465;43.094;12.434;2023-07-28T08:22:20;9.30;;;4.43;;
61572;SDS011;47465;43.094;12.434;2023-07-28T08:24:46;9.23;;;4.43;;
61572;SDS011;47465;43.094;12.434;2023-07-28T08:27:12;12.82;;;4.30;;
61572;SDS011;47465;43.094;12.434;2023-07-28T08:29:37;12.25;;;4.43;;
61572;SDS011;47465;43.094;12.434;2023-07-28T08:32:03;14.82;;;4.85;;
61572;SDS011;47465;43.094;12.434;2023-07-28T08:34:31;12.07;;;5.00;;
61572;SDS011;47465;43.094;12.434;2023-07-28T08:36:57;12.75;;;5.03;;
61572;SDS011;47465;43.094;12.434;2023-07-28T08:39:23;8.85;;;5.38;;
61572;SDS011;47465;43.094;12.434;2023-07-28T08:41:56;10.50;;;4.90;;
61572;SDS011;47465;43.094;12.434;2023-07-28T08:44:23;12.63;;;4.63;;
61572;SDS011;47465;43.094;12.434;2023-07-28T08:46:49;13.10;;;4.80;;
61572;SDS011;47465;43.094;12.434;2023-07-28T08:49:15;10.75;;;4.53;;
61572;SDS011;47465;43.094;12.434;2023-07-28T08:51:42;12.18;;;4.43;;
61572;SDS011;47465;43.094;12.434;2023-07-28T08:54:14;18.25;;;9.48;;
61572;SDS011;47465;43.094;12.434;2023-07-28T08:56:42;9.70;;;4.72;;
61572;SDS011;47465;43.094;12.434;2023-07-28T08:59:08;12.20;;;4.60;;
61572;SDS011;47465;43.094;12.434;2023-07-28T09:01:38;10.00;;;4.90;;
61572;SDS011;47465;43.094;12.434;2023-07-28T09:04:06;15.05;;;7.65;;
61572;SDS011;47465;43.094;12.434;2023-07-28T09:06:35;10.00;;;4.72;;
61572;SDS011;47465;43.094;12.434;2023-07-28T09:09:03;9.30;;;4.43;;
61572;SDS011;47465;43.094;12.434;2023-07-28T09:11:32;11.15;;;4.85;;
61572;SDS011;47465;43.094;12.434;2023-07-28T09:13:59;12.07;;;4.88;;
61572;SDS011;47465;43.094;12.434;2023-07-28T09:16:26;13.60;;;4.60;;
61572;SDS011;47465;43.094;12.434;2023-07-28T09:19:03;13.75;;;5.03;;
61572;SDS011;47465;43.094;12.434;2023-07-28T09:21:30;10.05;;;4.72;;
61572;SDS011;47465;43.094;12.434;2023-07-28T09:23:58;9.57;;;4.85;;
61572;SDS011;47465;43.094;12.434;2023-07-28T09:26:28;9.98;;;4.57;;
61572;SDS011;47465;43.094;12.434;2023-07-28T09:29:09;8.77;;;4.13;;
61572;SDS011;47465;43.094;12.434;2023-07-28T09:31:36;9.10;;;4.90;;
61572;SDS011;47465;43.094;12.434;2023-07-28T09:34:03;11.77;;;4.40;;
61572;SDS011;47465;43.094;12.434;2023-07-28T09:36:32;8.65;;;4.10;;
61572;SDS011;47465;43.094;12.434;2023-07-28T09:38:58;11.05;;;4.90;;
61572;SDS011;47465;43.094;12.434;2023-07-28T09:41:24;12.70;;;4.78;;
61572;SDS011;47465;43.094;12.434;2023-07-28T09:43:52;13.98;;;4.53;;
61572;SDS011;47465;43.094;12.434;2023-07-28T09:46:18;10.77;;;4.55;;
61572;SDS011;47465;43.094;12.434;2023-07-28T09:48:46;9.60;;;4.07;;
61572;SDS011;47465;43.094;12.434;2023-07-28T09:51:18;10.30;;;4.60;;
61572;SDS011;47465;43.094;12.434;2023-07-28T09:56:14;12.85;;;5.13;;
61572;SDS011;47465;43.094;12.434;2023-07-28T09:58:44;8.07;;;4.45;;
61572;SDS011;47465;43.094;12.434;2023-07-28T10:01:17;9.25;;;4.55;;
61572;SDS011;47465;43.094;12.434;2023-07-28T10:06:10;11.68;;;4.70;;
61572;SDS011;47465;43.094;12.434;2023-07-28T10:08:36;7.75;;;3.97;;
61572;SDS011;47465;43.094;12.434;2023-07-28T10:11:04;10.45;;;4.32;;
61572;SDS011;47465;43.094;12.434;2023-07-28T10:13:35;7.15;;;3.85;;
61572;SDS011;47465;43.094;12.434;2023-07-28T10:16:05;10.93;;;4.50;;
61572;SDS011;47465;43.094;12.434;2023-07-28T10:18:34;8.93;;;4.05;;
61572;SDS011;47465;43.094;12.434;2023-07-28T10:21:04;6.22;;;3.60;;
61572;SDS011;47465;43.094;12.434;2023-07-28T10:23:30;6.75;;;3.67;;
61572;SDS011;47465;43.094;12.434;2023-07-28T10:26:00;9.80;;;4.03;;
61572;SDS011;47465;43.094;12.434;2023-07-28T10:28:28;9.15;;;4.53;;
61572;SDS011;47465;43.094;12.434;2023-07-28T10:33:29;11.43;;;4.18;;
61572;SDS011;47465;43.094;12.434;2023-07-28T10:35:58;10.55;;;4.35;;
61572;SDS011;47465;43.094;12.434;2023-07-28T10:38:28;6.90;;;3.80;;
61572;SDS011;47465;43.094;12.434;2023-07-28T10:41:04;9.30;;;4.13;;
61572;SDS011;47465;43.094;12.434;2023-07-28T10:43:32;6.10;;;4.03;;
61572;SDS011;47465;43.094;12.434;2023-07-28T10:45:58;7.88;;;3.95;;
61572;SDS011;47465;43.094;12.434;2023-07-28T10:48:25;8.70;;;3.92;;
61572;SDS011;47465;43.094;12.434;2023-07-28T10:50:51;7.38;;;3.90;;
61572;SDS011;47465;43.094;12.434;2023-07-28T10:53:19;11.98;;;3.90;;
61572;SDS011;47465;43.094;12.434;2023-07-28T10:55:44;8.70;;;4.22;;
61572;SDS011;47465;43.094;12.434;2023-07-28T10:58:10;8.48;;;4.13;;
61572;SDS011;47465;43.094;12.434;2023-07-28T11:00:36;7.93;;;4.18;;
61572;SDS011;47465;43.094;12.434;2023-07-28T11:03:02;8.43;;;3.88;;
61572;SDS011;47465;43.094;12.434;2023-07-28T11:05:29;8.05;;;4.00;;
61572;SDS011;47465;43.094;12.434;2023-07-28T11:07:55;7.78;;;4.15;;
61572;SDS011;47465;43.094;12.434;2023-07-28T11:10:23;8.45;;;3.83;;
61572;SDS011;47465;43.094;12.434;2023-07-28T11:12:50;5.75;;;3.50;;
61572;SDS011;47465;43.094;12.434;2023-07-28T11:15:17;8.25;;;3.70;;
61572;SDS011;47465;43.094;12.434;2023-07-28T11:17:45;9.10;;;4.00;;
61572;SDS011;47465;43.094;12.434;2023-07-28T11:20:15;8.90;;;4.05;;
61572;SDS011;47465;43.094;12.434;2023-07-28T11:22:42;9.73;;;3.92;;
61572;SDS011;47465;43.094;12.434;2023-07-28T11:25:08;7.60;;;3.95;;
61572;SDS011;47465;43.094;12.434;2023-07-28T11:27:37;10.52;;;4.07;;
61572;SDS011;47465;43.094;12.434;2023-07-28T11:30:03;9.52;;;4.00;;
61572;SDS011;47465;43.094;12.434;2023-07-28T11:32:30;8.35;;;4.03;;
61572;SDS011;47465;43.094;12.434;2023-07-28T11:35:01;11.82;;;4.00;;
61572;SDS011;47465;43.094;12.434;2023-07-28T11:37:29;9.75;;;4.63;;
61572;SDS011;47465;43.094;12.434;2023-07-28T11:39:55;8.65;;;4.10;;
61572;SDS011;47465;43.094;12.434;2023-07-28T11:42:23;9.07;;;3.90;;
61572;SDS011;47465;43.094;12.434;2023-07-28T11:44:50;9.38;;;3.60;;
61572;SDS011;47465;43.094;12.434;2023-07-28T11:47:16;7.83;;;3.70;;
61572;SDS011;47465;43.094;12.434;2023-07-28T11:49:45;8.90;;;3.83;;
61572;SDS011;47465;43.094;12.434;2023-07-28T11:52:12;11.43;;;4.13;;
61572;SDS011;47465;43.094;12.434;2023-07-28T11:54:38;10.30;;;4.10;;
61572;SDS011;47465;43.094;12.434;2023-07-28T11:57:04;7.88;;;4.05;;
61572;SDS011;47465;43.094;12.434;2023-07-28T11:59:34;8.60;;;4.15;;
61572;SDS011;47465;43.094;12.434;2023-07-28T12:02:02;7.43;;;3.70;;
61572;SDS011;47465;43.094;12.434;2023-07-28T12:04:30;5.88;;;3.70;;
61572;SDS011;47465;43.094;12.434;2023-07-28T12:07:04;9.00;;;3.67;;
61572;SDS011;47465;43.094;12.434;2023-07-28T12:09:32;8.23;;;3.95;;
61572;SDS011;47465;43.094;12.434;2023-07-28T12:11:58;10.45;;;3.67;;
61572;SDS011;47465;43.094;12.434;2023-07-28T12:14:32;7.95;;;4.05;;
61572;SDS011;47465;43.094;12.434;2023-07-28T12:16:58;8.98;;;3.80;;
61572;SDS011;47465;43.094;12.434;2023-07-28T12:19:26;8.48;;;3.90;;
61572;SDS011;47465;43.094;12.434;2023-07-28T12:21:52;8.85;;;3.72;;
61572;SDS011;47465;43.094;12.434;2023-07-28T12:24:18;5.45;;;3.30;;
61572;SDS011;47465;43.094;12.434;2023-07-28T12:26:45;7.63;;;4.03;;
61572;SDS011;47465;43.094;12.434;2023-07-28T12:29:10;8.10;;;3.63;;
61572;SDS011;47465;43.094;12.434;2023-07-28T12:31:37;7.53;;;3.92;;
61572;SDS011;47465;43.094;12.434;2023-07-28T12:34:02;8.45;;;3.88;;
61572;SDS011;47465;43.094;12.434;2023-07-28T12:36:30;8.23;;;4.20;;
61572;SDS011;47465;43.094;12.434;2023-07-28T12:38:56;8.98;;;3.80;;
61572;SDS011;47465;43.094;12.434;2023-07-28T12:41:22;8.45;;;3.90;;
61572;SDS011;47465;43.094;12.434;2023-07-28T12:43:48;8.30;;;4.10;;
61572;SDS011;47465;43.094;12.434;2023-07-28T12:46:14;8.85;;;3.55;;
61572;SDS011;47465;43.094;12.434;2023-07-28T12:48:40;6.78;;;3.97;;
61572;SDS011;47465;43.094;12.434;2023-07-28T12:51:06;9.30;;;3.90;;
61572;SDS011;47465;43.094;12.434;2023-07-28T12:53:33;7.30;;;4.00;;
61572;SDS011;47465;43.094;12.434;2023-07-28T12:55:59;9.65;;;4.25;;
61572;SDS011;47465;43.094;12.434;2023-07-28T12:58:25;7.43;;;3.70;;
61572;SDS011;47465;43.094;12.434;2023-07-28T13:00:51;7.20;;;3.70;;
61572;SDS011;47465;43.094;12.434;2023-07-28T13:03:17;6.45;;;3.72;;
61572;SDS011;47465;43.094;12.434;2023-07-28T13:05:43;13.18;;;4.03;;
61572;SDS011;47465;43.094;12.434;2023-07-28T13:08:09;11.05;;;3.90;;
61572;SDS011;47465;43.094;12.434;2023-07-28T13:10:36;9.45;;;3.92;;
61572;SDS011;47465;43.094;12.434;2023-07-28T13:13:02;6.67;;;3.63;;
61572;SDS011;47465;43.094;12.434;2023-07-28T13:15:28;6.47;;;3.40;;
61572;SDS011;47465;43.094;12.434;2023-07-28T13:17:55;7.20;;;3.42;;
61572;SDS011;47465;43.094;12.434;2023-07-28T13:20:20;13.02;;;4.03;;
61572;SDS011;47465;43.094;12.434;2023-07-28T13:22:47;6.88;;;3.63;;
61572;SDS011;47465;43.094;12.434;2023-07-28T13:25:12;8.40;;;3.40;;
61572;SDS011;47465;43.094;12.434;2023-07-28T13:27:40;9.10;;;3.67;;
61572;SDS011;47465;43.094;12.434;2023-07-28T13:30:06;8.05;;;3.58;;
61572;SDS011;47465;43.094;12.434;2023-07-28T13:32:33;8.32;;;3.63;;
61572;SDS011;47465;43.094;12.434;2023-07-28T13:34:59;6.03;;;3.40;;
61572;SDS011;47465;43.094;12.434;2023-07-28T13:37:25;10.02;;;3.75;;
61572;SDS011;47465;43.094;12.434;2023-07-28T13:39:50;7.40;;;3.53;;
61572;SDS011;47465;43.094;12.434;2023-07-28T13:42:17;6.82;;;3.33;;
61572;SDS011;47465;43.094;12.434;2023-07-28T13:44:44;7.13;;;3.72;;
61572;SDS011;47465;43.094;12.434;2023-07-28T13:47:10;8.13;;;3.72;;
61572;SDS011;47465;43.094;12.434;2023-07-28T13:49:36;6.53;;;3.50;;
61572;SDS011;47465;43.094;12.434;2023-07-28T13:52:03;8.55;;;3.78;;
61572;SDS011;47465;43.094;12.434;2023-07-28T13:54:29;6.07;;;3.72;;
61572;SDS011;47465;43.094;12.434;2023-07-28T13:56:55;6.05;;;3.22;;
61572;SDS011;47465;43.094;12.434;2023-07-28T13:59:21;7.85;;;4.10;;
61572;SDS011;47465;43.094;12.434;2023-07-28T14:01:49;9.52;;;4.50;;
61572;SDS011;47465;43.094;12.434;2023-07-28T14:04:15;8.77;;;3.70;;
61572;SDS011;47465;43.094;12.434;2023-07-28T14:06:41;8.38;;;3.75;;
61572;SDS011;47465;43.094;12.434;2023-07-28T14:09:07;10.00;;;3.90;;
61572;SDS011;47465;43.094;12.434;2023-07-28T14:11:33;10.13;;;3.60;;
61572;SDS011;47465;43.094;12.434;2023-07-28T14:13:59;6.53;;;3.65;;
61572;SDS011;47465;43.094;12.434;2023-07-28T14:16:27;5.70;;;3.17;;
61572;SDS011;47465;43.094;12.434;2023-07-28T14:18:54;6.45;;;3.47;;
61572;SDS011;47465;43.094;12.434;2023-07-28T14:21:20;8.10;;;3.77;;
61572;SDS011;47465;43.094;12.434;2023-07-28T14:23:46;6.20;;;3.70;;
61572;SDS011;47465;43.094;12.434;2023-07-28T14:26:12;7.13;;;3.47;;
61572;SDS011;47465;43.094;12.434;2023-07-28T14:28:37;7.00;;;3.38;;
61572;SDS011;47465;43.094;12.434;2023-07-28T14:31:04;6.75;;;3.20;;
61572;SDS011;47465;43.094;12.434;2023-07-28T14:33:30;8.40;;;3.10;;
61572;SDS011;47465;43.094;12.434;2023-07-28T14:35:57;5.88;;;3.65;;
61572;SDS011;47465;43.094;12.434;2023-07-28T14:38:24;6.20;;;3.25;;